createdAt,value
2022-12-08T00:01:08.604Z,26.02
2022-12-08T00:03:36.176Z,26.65
2022-12-08T00:06:23.152Z,25.00
2022-12-08T00:09:08.511Z,23.17
2022-12-08T00:11:35.029Z,26.52
2022-12-08T00:14:01.657Z,25.02
2022-12-08T00:16:28.215Z,26.23
2022-12-08T00:18:54.778Z,26.98
2022-12-08T00:21:21.243Z,25.58
2022-12-08T00:23:47.662Z,24.67
2022-12-08T00:26:14.078Z,26.15
2022-12-08T00:28:40.478Z,26.25
2022-12-08T00:31:11.635Z,25.17
2022-12-08T00:33:38.240Z,23.67
2022-12-08T00:36:12.821Z,25.60
2022-12-08T00:38:40.327Z,27.15
2022-12-08T00:41:14.561Z,29.55
2022-12-08T00:43:41.373Z,28.50
2022-12-08T00:46:07.917Z,26.35
2022-12-08T00:48:34.882Z,28.00
2022-12-08T00:51:01.391Z,26.05
2022-12-08T00:53:27.912Z,25.58
2022-12-08T00:55:54.352Z,24.92
2022-12-08T00:58:20.756Z,25.20
2022-12-08T01:00:47.257Z,21.13
2022-12-08T01:03:13.789Z,22.23
2022-12-08T01:05:40.293Z,21.98
2022-12-08T01:08:08.696Z,23.00
2022-12-08T01:10:36.645Z,22.38
2022-12-08T01:13:03.352Z,25.15
2022-12-08T01:15:29.772Z,20.45
2022-12-08T01:17:56.414Z,18.25
2022-12-08T01:20:22.910Z,23.30
2022-12-08T01:22:49.356Z,19.42
2022-12-08T01:25:15.888Z,20.98
2022-12-08T01:27:42.295Z,19.15
2022-12-08T01:30:09.370Z,18.67
2022-12-08T01:32:35.812Z,20.65
2022-12-08T01:35:02.399Z,20.58
2022-12-08T01:37:29.744Z,21.02
2022-12-08T01:39:56.101Z,19.17
2022-12-08T01:42:23.688Z,21.60
2022-12-08T01:44:55.005Z,21.90
2022-12-08T01:47:24.164Z,26.33
2022-12-08T01:49:50.650Z,24.30
2022-12-08T01:52:24.755Z,24.02
2022-12-08T01:55:00.696Z,23.40
2022-12-08T01:57:31.466Z,23.02
2022-12-08T02:00:05.564Z,27.35
2022-12-08T02:02:42.045Z,28.45
2022-12-08T02:05:09.777Z,26.08
2022-12-08T02:07:37.520Z,27.75
2022-12-08T02:10:05.109Z,25.00
2022-12-08T02:12:31.931Z,28.52
2022-12-08T02:15:04.745Z,28.52
2022-12-08T02:17:53.641Z,23.73
2022-12-08T02:20:43.101Z,25.42
2022-12-08T02:23:15.494Z,25.42
2022-12-08T02:25:48.833Z,32.58
2022-12-08T02:28:45.480Z,25.13
2022-12-08T02:31:25.976Z,25.63
2022-12-08T02:34:12.612Z,29.75
2022-12-08T02:37:23.172Z,26.67
2022-12-08T02:40:09.978Z,29.55
2022-12-08T02:42:55.044Z,29.60
2022-12-08T02:45:44.932Z,26.60
2022-12-08T02:48:11.909Z,23.77
2022-12-08T02:50:38.368Z,22.98
2022-12-08T02:55:42.981Z,25.70
2022-12-08T02:58:39.773Z,27.92
2022-12-08T03:01:17.994Z,27.42
2022-12-08T03:03:56.528Z,25.63
2022-12-08T03:06:32.164Z,28.42
2022-12-08T03:09:07.125Z,19.15
2022-12-08T03:11:46.535Z,20.27
2022-12-08T03:14:16.294Z,24.05
2022-12-08T03:16:47.242Z,20.20
2022-12-08T03:19:17.401Z,23.10
2022-12-08T03:21:45.709Z,20.15
2022-12-08T03:24:15.181Z,23.83
2022-12-08T03:26:48.407Z,21.38
2022-12-08T03:29:15.127Z,17.55
2022-12-08T03:31:49.318Z,21.63
2022-12-08T03:34:18.212Z,19.42
2022-12-08T03:36:45.623Z,21.27
2022-12-08T03:39:12.252Z,20.33
2022-12-08T03:41:38.655Z,20.63
2022-12-08T03:44:05.283Z,20.98
2022-12-08T03:46:31.846Z,18.85
2022-12-08T03:48:58.217Z,21.10
2022-12-08T03:51:24.932Z,22.50
2022-12-08T03:53:51.369Z,20.20
2022-12-08T03:56:30.756Z,16.05
2022-12-08T03:58:57.792Z,17.23
2022-12-08T04:01:24.834Z,16.77
2022-12-08T04:03:51.333Z,20.08
2022-12-08T04:06:18.910Z,17.35
2022-12-08T04:08:45.597Z,14.52
2022-12-08T04:11:12.185Z,13.68
2022-12-08T04:13:40.566Z,14.25
2022-12-08T04:16:08.229Z,14.35
2022-12-08T04:18:35.816Z,17.73
2022-12-08T04:21:02.375Z,16.40
2022-12-08T04:23:28.781Z,14.27
2022-12-08T04:25:55.213Z,14.80
2022-12-08T04:28:21.773Z,16.13
2022-12-08T04:30:49.285Z,14.98
2022-12-08T04:33:16.094Z,17.80
2022-12-08T04:35:42.592Z,15.48
2022-12-08T04:38:09.069Z,16.95
2022-12-08T04:40:35.483Z,15.35
2022-12-08T04:43:01.923Z,15.85
2022-12-08T04:45:28.355Z,15.07
2022-12-08T04:47:54.769Z,15.68
2022-12-08T04:50:21.174Z,16.15
2022-12-08T04:52:47.605Z,19.73
2022-12-08T04:55:13.966Z,16.88
2022-12-08T04:57:40.437Z,15.02
2022-12-08T05:00:07.938Z,15.88
2022-12-08T05:02:34.628Z,12.48
2022-12-08T05:05:01.327Z,19.20
2022-12-08T05:07:27.965Z,16.17
2022-12-08T05:09:54.428Z,17.88
2022-12-08T05:12:20.867Z,14.43
2022-12-08T05:14:48.309Z,22.30
2022-12-08T05:17:15.891Z,17.27
2022-12-08T05:19:42.485Z,16.88
2022-12-08T05:22:09.130Z,15.30
2022-12-08T05:24:35.644Z,18.75
2022-12-08T05:27:02.161Z,18.25
2022-12-08T05:29:28.606Z,18.77
2022-12-08T05:31:55.125Z,18.48
2022-12-08T05:34:21.642Z,20.10
2022-12-08T05:36:48.185Z,20.08
2022-12-08T05:39:14.874Z,23.30
2022-12-08T05:41:41.795Z,24.83
2022-12-08T05:44:08.614Z,20.38
2022-12-08T05:46:35.403Z,21.42
2022-12-08T05:49:02.381Z,22.02
2022-12-08T05:51:28.961Z,19.42
2022-12-08T05:53:55.657Z,20.45
2022-12-08T05:56:22.853Z,23.13
2022-12-08T05:58:50.124Z,23.33
2022-12-08T06:01:27.713Z,25.30
2022-12-08T06:03:55.003Z,24.05
2022-12-08T06:06:21.764Z,27.13
2022-12-08T06:08:48.847Z,29.60
2022-12-08T06:11:21.024Z,27.33
2022-12-08T06:13:47.873Z,26.65
2022-12-08T06:16:14.321Z,30.15
2022-12-08T06:18:40.849Z,27.20
2022-12-08T06:21:09.986Z,31.33
2022-12-08T06:23:37.028Z,31.10
2022-12-08T06:26:09.224Z,28.92
2022-12-08T06:28:36.430Z,27.75
2022-12-08T06:31:11.703Z,33.67
2022-12-08T06:33:38.622Z,27.63
2022-12-08T06:36:06.285Z,28.15
2022-12-08T06:38:33.110Z,27.30
2022-12-08T06:41:00.135Z,25.33
2022-12-08T06:43:27.521Z,25.88
2022-12-08T06:45:54.068Z,25.60
2022-12-08T06:48:20.669Z,29.40
2022-12-08T06:50:47.072Z,24.77
2022-12-08T06:53:16.638Z,24.92
2022-12-08T06:56:00.803Z,26.45
2022-12-08T06:58:27.348Z,24.10
2022-12-08T07:00:54.225Z,22.83
2022-12-08T07:03:20.870Z,26.08
2022-12-08T07:05:47.388Z,23.75
2022-12-08T07:08:13.895Z,26.58
2022-12-08T07:10:40.424Z,25.27
2022-12-08T07:13:06.901Z,22.98
2022-12-08T07:15:33.293Z,22.17
2022-12-08T07:18:00.512Z,21.58
2022-12-08T07:20:27.419Z,23.25
2022-12-08T07:22:54.204Z,23.63
2022-12-08T07:25:20.726Z,25.27
2022-12-08T07:27:48.054Z,26.52
2022-12-08T07:30:14.921Z,22.15
2022-12-08T07:32:41.431Z,23.25
2022-12-08T07:35:08.889Z,21.30
2022-12-08T07:37:37.481Z,23.73
2022-12-08T07:40:08.644Z,23.08
2022-12-08T07:42:35.506Z,21.95
2022-12-08T07:45:02.258Z,25.33
2022-12-08T07:47:28.694Z,26.27
2022-12-08T07:49:55.165Z,20.35
2022-12-08T07:52:21.561Z,23.42
2022-12-08T07:54:47.947Z,22.33
2022-12-08T07:57:14.640Z,25.65
2022-12-08T07:59:41.110Z,22.00
2022-12-08T08:02:24.337Z,22.75
2022-12-08T08:04:51.909Z,19.17
2022-12-08T08:07:18.383Z,19.20
2022-12-08T08:09:45.823Z,20.33
2022-12-08T08:12:30.665Z,22.88
2022-12-08T08:14:58.960Z,21.60
2022-12-08T08:17:25.508Z,18.98
2022-12-08T08:19:52.090Z,20.13
2022-12-08T08:22:18.478Z,19.08
2022-12-08T08:24:45.411Z,21.70
2022-12-08T08:27:12.065Z,20.88
2022-12-08T08:29:38.536Z,19.45
2022-12-08T08:32:05.053Z,20.30
2022-12-08T08:34:31.496Z,20.65
2022-12-08T08:36:58.037Z,20.25
2022-12-08T08:39:24.597Z,20.17
2022-12-08T08:41:51.011Z,22.10
2022-12-08T08:44:17.451Z,21.45
2022-12-08T08:46:44.207Z,20.58
2022-12-08T08:49:10.713Z,26.23
2022-12-08T08:51:37.200Z,25.35
2022-12-08T08:54:03.641Z,23.08
2022-12-08T08:56:30.136Z,31.08
2022-12-08T08:58:56.626Z,27.90
2022-12-08T09:01:26.856Z,25.70
2022-12-08T09:03:54.805Z,31.73
2022-12-08T09:06:22.021Z,29.77
2022-12-08T09:08:48.999Z,30.48
2022-12-08T09:11:18.469Z,30.70
2022-12-08T09:13:48.254Z,32.95
2022-12-08T09:16:15.011Z,31.05
2022-12-08T09:18:41.557Z,30.55
2022-12-08T09:21:13.006Z,33.63
2022-12-08T09:23:39.496Z,32.28
2022-12-08T09:26:07.836Z,29.75
2022-12-08T09:28:34.281Z,34.47
2022-12-08T09:31:01.968Z,26.65
2022-12-08T09:33:28.534Z,28.60
2022-12-08T09:35:54.928Z,30.42
2022-12-08T09:38:21.472Z,29.98
2022-12-08T09:40:53.673Z,35.42
2022-12-08T09:43:20.046Z,31.92
2022-12-08T09:45:48.263Z,38.17
2022-12-08T09:48:22.846Z,29.67
2022-12-08T09:50:57.249Z,29.83
2022-12-08T09:53:36.865Z,32.83
2022-12-08T09:56:12.333Z,29.67
2022-12-08T09:58:48.929Z,25.98
2022-12-08T10:01:16.611Z,26.90
2022-12-08T10:03:43.943Z,30.90
2022-12-08T10:06:33.537Z,25.55
2022-12-08T10:09:23.890Z,21.75
2022-12-08T10:11:56.807Z,26.20
2022-12-08T10:14:34.139Z,27.13
2022-12-08T10:17:22.724Z,24.05
2022-12-08T10:19:55.462Z,25.73
2022-12-08T10:22:24.746Z,28.95
2022-12-08T10:25:18.353Z,23.35
2022-12-08T10:27:48.209Z,21.80
2022-12-08T10:30:17.071Z,23.08
2022-12-08T10:32:46.344Z,23.92
2022-12-08T10:35:15.795Z,22.42
2022-12-08T10:37:56.908Z,23.75
2022-12-08T10:40:26.973Z,21.75
2022-12-08T10:42:57.479Z,21.40
2022-12-08T10:45:31.122Z,19.98
2022-12-08T10:48:04.384Z,20.77
2022-12-08T10:50:36.606Z,19.80
2022-12-08T10:53:19.732Z,21.77
2022-12-08T10:55:50.962Z,20.42
2022-12-08T10:58:42.682Z,20.13
2022-12-08T11:01:22.223Z,22.60
2022-12-08T11:04:00.846Z,24.30
2022-12-08T11:06:30.393Z,22.00
2022-12-08T11:08:59.740Z,21.58
2022-12-08T11:11:44.801Z,26.48
2022-12-08T11:14:25.600Z,21.55
2022-12-08T11:16:55.922Z,23.42
2022-12-08T11:19:27.652Z,24.00
2022-12-08T11:21:54.141Z,25.13
2022-12-08T11:24:34.647Z,21.67
2022-12-08T11:27:05.482Z,27.50
2022-12-08T11:29:33.756Z,26.65
2022-12-08T11:32:11.512Z,25.13
2022-12-08T11:35:06.281Z,20.63
2022-12-08T11:37:43.812Z,26.85
2022-12-08T11:40:36.209Z,22.25
2022-12-08T11:43:15.498Z,20.27
2022-12-08T11:45:42.223Z,23.13
2022-12-08T11:48:19.123Z,23.20
2022-12-08T11:50:51.603Z,21.88
2022-12-08T11:53:29.864Z,25.50
2022-12-08T11:56:08.352Z,28.30
2022-12-08T11:58:49.589Z,19.55
2022-12-08T12:01:22.427Z,22.27
2022-12-08T12:04:12.460Z,21.60
2022-12-08T12:06:56.831Z,23.95
2022-12-08T12:09:58.837Z,21.65
2022-12-08T12:13:00.075Z,24.35
2022-12-08T12:16:04.230Z,22.55
2022-12-08T12:18:49.967Z,22.25
2022-12-08T12:21:31.114Z,23.67
2022-12-08T12:24:03.608Z,21.65
2022-12-08T12:26:32.740Z,21.83
2022-12-08T12:29:06.646Z,19.85
2022-12-08T12:31:43.466Z,19.55
2022-12-08T12:34:34.142Z,19.40
2022-12-08T12:37:05.887Z,17.20
2022-12-08T12:39:45.329Z,22.10
2022-12-08T12:42:43.865Z,22.83
2022-12-08T12:45:34.088Z,18.48
2022-12-08T12:48:00.476Z,18.80
2022-12-08T12:50:32.964Z,19.85
2022-12-08T12:53:17.918Z,21.90
2022-12-08T12:55:54.784Z,18.30
2022-12-08T12:58:30.189Z,15.50
2022-12-08T13:01:12.508Z,19.02
2022-12-08T13:04:09.095Z,22.88
2022-12-08T13:06:40.493Z,14.70
2022-12-08T13:09:16.888Z,17.55
2022-12-08T13:11:55.821Z,15.27
2022-12-08T13:14:47.510Z,17.67
2022-12-08T13:17:22.666Z,17.65
2022-12-08T13:22:50.179Z,14.98
2022-12-08T13:25:44.377Z,15.07
2022-12-08T13:28:26.462Z,20.70
2022-12-08T13:30:59.895Z,17.48
2022-12-08T13:33:27.818Z,20.10
2022-12-08T13:36:02.423Z,15.05
2022-12-08T13:38:32.571Z,19.05
2022-12-08T13:41:03.274Z,16.40
2022-12-08T13:44:02.555Z,17.13
2022-12-08T13:47:09.824Z,20.60
2022-12-08T13:58:34.453Z,14.95
2022-12-08T14:01:22.128Z,13.07
2022-12-08T14:04:31.119Z,13.45
2022-12-08T14:06:45.543Z,13.45
2022-12-08T14:09:16.163Z,16.58
2022-12-08T14:12:03.300Z,12.68
2022-12-08T14:15:01.259Z,12.40
2022-12-08T14:17:22.149Z,15.48
2022-12-08T14:19:57.038Z,17.83
2022-12-08T14:22:23.986Z,17.70
2022-12-08T14:24:53.536Z,16.02
2022-12-08T14:27:23.004Z,18.20
2022-12-08T14:29:58.230Z,12.82
2022-12-08T14:35:03.055Z,14.10
2022-12-08T14:37:32.855Z,18.45
2022-12-08T14:40:23.114Z,17.23
2022-12-08T14:43:06.054Z,16.60
2022-12-08T14:45:35.322Z,13.50
2022-12-08T14:48:33.610Z,21.45
2022-12-08T14:51:18.795Z,20.00
2022-12-08T14:53:55.430Z,17.63
2022-12-08T14:56:31.578Z,12.75
2022-12-08T14:59:19.792Z,14.07
2022-12-08T15:01:48.102Z,16.20
2022-12-08T15:04:14.775Z,19.63
2022-12-08T15:06:51.984Z,17.35
2022-12-08T15:09:30.959Z,16.42
2022-12-08T15:12:26.730Z,16.15
2022-12-08T15:15:15.234Z,14.93
2022-12-08T15:17:48.858Z,12.13
2022-12-08T15:20:41.757Z,17.88
2022-12-08T15:23:21.991Z,19.35
2022-12-08T15:25:49.364Z,14.63
2022-12-08T15:28:18.606Z,16.65
2022-12-08T15:30:45.423Z,14.88
2022-12-08T15:33:11.831Z,12.80
2022-12-08T15:35:40.956Z,17.10
2022-12-08T15:38:30.348Z,12.48
2022-12-08T15:41:00.673Z,15.98
2022-12-08T15:43:27.907Z,17.65
2022-12-08T15:45:59.374Z,16.38
2022-12-08T15:48:28.517Z,25.13
2022-12-08T15:50:56.082Z,20.90
2022-12-08T15:53:22.901Z,12.80
2022-12-08T15:56:18.815Z,16.98
2022-12-08T15:58:55.281Z,15.07
2022-12-08T16:01:23.079Z,16.52
2022-12-08T16:09:36.967Z,14.98
2022-12-08T16:12:23.194Z,17.95
2022-12-08T16:17:36.850Z,13.73
2022-12-08T16:20:06.334Z,13.65
2022-12-08T16:25:22.003Z,14.18
2022-12-08T16:28:17.197Z,18.60
2022-12-08T16:30:40.706Z,11.77
2022-12-08T16:33:07.225Z,14.23
2022-12-08T16:35:33.815Z,16.55
2022-12-08T16:38:00.381Z,14.68
2022-12-08T16:40:26.847Z,16.98
2022-12-08T16:42:53.525Z,15.20
2022-12-08T16:45:25.757Z,14.95
2022-12-08T16:47:54.793Z,15.95
2022-12-08T16:50:29.653Z,21.15
2022-12-08T16:52:58.703Z,17.85
2022-12-08T16:55:25.178Z,15.32
2022-12-08T16:57:51.985Z,17.02
2022-12-08T17:00:21.499Z,14.30
2022-12-08T17:02:49.080Z,16.23
2022-12-08T17:05:17.621Z,15.10
2022-12-08T17:07:46.115Z,14.77
2022-12-08T17:10:16.167Z,15.32
2022-12-08T17:12:43.321Z,19.38
2022-12-08T17:15:13.084Z,19.58
2022-12-08T17:17:40.060Z,19.65
2022-12-08T17:20:09.946Z,20.20
2022-12-08T17:22:36.381Z,12.75
2022-12-08T17:25:03.986Z,14.10
2022-12-08T17:27:30.933Z,15.18
2022-12-08T17:29:57.432Z,17.05
2022-12-08T17:32:24.255Z,18.63
2022-12-08T17:34:50.844Z,15.68
2022-12-08T17:37:17.692Z,12.05
2022-12-08T17:39:44.509Z,12.27
2022-12-08T17:42:11.074Z,11.27
2022-12-08T17:44:37.545Z,19.30
2022-12-08T17:47:05.108Z,15.50
2022-12-08T17:49:32.849Z,18.63
2022-12-08T17:52:01.827Z,13.20
2022-12-08T17:54:28.954Z,13.70
2022-12-08T17:56:58.542Z,14.02
2022-12-08T17:59:25.728Z,14.73
2022-12-08T18:01:53.783Z,15.10
2022-12-08T18:04:20.871Z,17.70
2022-12-08T18:06:47.496Z,15.07
2022-12-08T18:09:14.819Z,16.80
2022-12-08T18:11:42.702Z,15.68
2022-12-08T18:14:10.324Z,14.23
2022-12-08T18:16:42.592Z,15.30
2022-12-08T18:19:12.423Z,17.63
2022-12-08T18:21:39.712Z,17.08
2022-12-08T18:24:06.764Z,14.55
2022-12-08T18:26:33.410Z,17.05
2022-12-08T18:29:00.010Z,17.58
2022-12-08T18:31:26.855Z,14.02
2022-12-08T18:33:53.752Z,15.05
2022-12-08T18:36:23.936Z,14.52
2022-12-08T18:38:51.535Z,14.93
2022-12-08T18:41:20.630Z,18.55
2022-12-08T18:43:47.094Z,15.13
2022-12-08T18:46:14.752Z,19.27
2022-12-08T18:48:44.734Z,18.48
2022-12-08T18:51:12.777Z,14.60
2022-12-08T18:53:39.730Z,16.40
2022-12-08T18:56:06.962Z,13.95
2022-12-08T18:58:33.687Z,18.65
2022-12-08T19:01:00.331Z,19.08
2022-12-08T19:03:26.859Z,13.85
2022-12-08T19:06:04.666Z,16.08
2022-12-08T19:08:31.634Z,18.98
2022-12-08T19:10:58.680Z,15.63
2022-12-08T19:13:25.604Z,15.57
2022-12-08T19:15:52.036Z,14.98
2022-12-08T19:18:18.671Z,14.27
2022-12-08T19:22:36.767Z,16.60
2022-12-08T19:25:04.665Z,22.00
2022-12-08T19:27:33.981Z,18.27
2022-12-08T19:30:00.649Z,17.60
2022-12-08T19:32:27.076Z,14.82
2022-12-08T19:34:53.475Z,14.07
2022-12-08T19:37:19.890Z,18.27
2022-12-08T19:40:04.949Z,18.08
2022-12-08T19:42:49.966Z,16.33
2022-12-08T19:45:21.511Z,20.08
2022-12-08T19:47:48.429Z,15.07
2022-12-08T19:50:34.871Z,19.52
2022-12-08T19:53:02.057Z,13.85
2022-12-08T19:55:29.001Z,15.30
2022-12-08T19:57:56.961Z,18.35
2022-12-08T20:00:24.004Z,14.85
2022-12-08T20:02:50.564Z,18.13
2022-12-08T20:05:16.981Z,17.42
2022-12-08T20:07:43.861Z,20.95
2022-12-08T20:10:22.760Z,14.02
2022-12-08T20:12:49.352Z,15.05
2022-12-08T20:15:15.954Z,18.50
2022-12-08T20:17:43.583Z,20.15
2022-12-08T20:20:10.911Z,18.92
2022-12-08T20:22:37.528Z,15.77
2022-12-08T20:25:04.151Z,18.13
2022-12-08T20:27:30.752Z,19.00
2022-12-08T20:29:57.118Z,18.05
2022-12-08T20:32:23.773Z,18.85
2022-12-08T20:34:50.360Z,19.60
2022-12-08T20:37:16.725Z,15.18
2022-12-08T20:39:43.149Z,18.95
2022-12-08T20:42:13.561Z,16.40
2022-12-08T20:44:44.135Z,21.65
2022-12-08T20:47:11.981Z,16.20
2022-12-08T20:49:38.662Z,17.02
2022-12-08T20:52:05.589Z,15.73
2022-12-08T20:54:32.175Z,18.05
2022-12-08T20:56:59.114Z,18.98
2022-12-08T20:59:26.678Z,19.23
2022-12-08T21:01:53.884Z,16.17
2022-12-08T21:04:21.206Z,17.40
2022-12-08T21:06:48.083Z,19.45
2022-12-08T21:09:14.618Z,20.20
2022-12-08T21:11:41.350Z,16.75
2022-12-08T21:14:08.009Z,21.63
2022-12-08T21:16:34.754Z,23.20
2022-12-08T21:19:01.260Z,14.68
2022-12-08T21:21:27.739Z,27.95
2022-12-08T21:23:54.254Z,17.58
2022-12-08T21:26:25.812Z,17.85
2022-12-08T21:28:54.719Z,20.75
2022-12-08T21:31:21.914Z,19.75
2022-12-08T21:33:49.215Z,23.90
2022-12-08T21:36:18.394Z,20.65
2022-12-08T21:38:45.010Z,18.15
2022-12-08T21:41:15.810Z,18.58
2022-12-08T21:43:42.827Z,21.25
2022-12-08T21:46:16.935Z,28.40
2022-12-08T21:48:43.875Z,19.75
2022-12-08T21:51:10.320Z,18.75
2022-12-08T21:53:37.077Z,22.52
2022-12-08T21:56:08.808Z,27.23
2022-12-08T21:58:35.399Z,20.60
2022-12-08T22:01:06.772Z,21.27
2022-12-08T22:03:33.432Z,19.60
2022-12-08T22:06:12.314Z,17.38
2022-12-08T22:08:39.469Z,17.67
2022-12-08T22:11:08.091Z,19.83
2022-12-08T22:13:36.641Z,20.73
2022-12-08T22:16:05.528Z,18.70
2022-12-08T22:18:32.434Z,26.02
2022-12-08T22:20:59.245Z,16.70
2022-12-08T22:23:26.104Z,24.25
2022-12-08T22:26:00.142Z,17.65
2022-12-08T22:28:28.349Z,17.95
2022-12-08T22:30:54.842Z,18.15
2022-12-08T22:33:21.355Z,16.33
2022-12-08T22:36:09.668Z,18.45
2022-12-08T22:38:37.346Z,21.20
2022-12-08T22:41:05.628Z,19.58
2022-12-08T22:43:32.660Z,19.75
2022-12-08T22:45:59.300Z,20.85
2022-12-08T22:48:26.139Z,19.92
2022-12-08T22:50:59.001Z,20.92
2022-12-08T22:53:25.889Z,18.55
2022-12-08T22:55:52.378Z,21.58
2022-12-08T22:58:19.878Z,20.70
2022-12-08T23:00:46.381Z,23.15
2022-12-08T23:03:12.987Z,20.73
2022-12-08T23:05:40.538Z,22.77
2022-12-08T23:08:08.936Z,24.10
2022-12-08T23:10:35.850Z,23.08
2022-12-08T23:13:04.142Z,27.60
2022-12-08T23:15:31.597Z,20.58
2022-12-08T23:17:58.138Z,19.67
2022-12-08T23:20:24.902Z,17.70
2022-12-08T23:22:51.676Z,20.98
2022-12-08T23:25:18.522Z,21.38
2022-12-08T23:27:46.153Z,18.30
2022-12-08T23:30:13.596Z,22.42
2022-12-08T23:32:40.440Z,26.50
2022-12-08T23:35:07.979Z,22.35
2022-12-08T23:37:34.817Z,21.55
2022-12-08T23:40:01.480Z,19.85
2022-12-08T23:42:29.959Z,31.52
2022-12-08T23:44:56.537Z,20.80
2022-12-08T23:47:23.120Z,22.92
2022-12-08T23:49:49.535Z,19.85
2022-12-08T23:52:16.043Z,26.52
2022-12-08T23:54:42.445Z,25.48
2022-12-08T23:57:08.890Z,23.98
2022-12-08T23:59:35.313Z,24.42
